Time;durP1;ratioP1;P1;durP2;ratioP2;P2;SDS_P1;SDS_P2;PMS_P1;PMS_P2;Temp;Humidity;BMP_temperature;BMP_pressure;BME280_temperature;BME280_humidity;BME280_pressure;Samples;Min_cycle;Max_cycle;Signal;HPM_P1;HPM_P2
2022/05/24 00:01:21;;;;;;;3.83;2.13;;;;;;;-149.78;100.00;50201.56;5115978;28;20084;-73
2022/05/24 00:03:47;;;;;;;4.90;2.15;;;;;;;-149.78;100.00;50185.91;5106890;28;20412;-73
2022/05/24 00:06:14;;;;;;;3.25;2.20;;;;;;;-149.78;100.00;50201.56;5122274;27;20070;-73
2022/05/24 00:08:40;;;;;;;4.90;2.13;;;;;;;-149.78;100.00;50185.91;5095140;28;20063;-73
2022/05/24 00:11:06;;;;;;;4.78;2.22;;;;;;;-149.78;100.00;50209.38;5090963;28;20063;-73
2022/05/24 00:13:31;;;;;;;4.88;2.10;;;;;;;-149.78;100.00;50201.56;5080754;28;20039;-73
2022/05/24 00:15:59;;;;;;;5.68;2.40;;;;;;;-149.78;100.00;50213.28;5099168;28;20039;-73
2022/05/24 00:18:28;;;;;;;4.28;2.40;;;;;;;-149.78;100.00;50228.94;5134100;28;20031;-73
2022/05/24 00:20:57;;;;;;;3.65;2.42;;;;;;;-149.78;100.00;50248.50;5115743;28;20031;-73
2022/05/24 00:23:24;;;;;;;6.55;2.42;;;;;;;-149.78;100.00;50228.94;5133938;28;20035;-73
2022/05/24 00:25:53;;;;;;;6.25;2.42;;;;;;;-149.78;100.00;50217.19;5114099;28;20092;-73
2022/05/24 00:28:20;;;;;;;4.60;2.35;;;;;;;-149.78;100.00;50221.13;5121623;28;20050;-73
2022/05/24 00:30:47;;;;;;;7.40;2.70;;;;;;;-149.78;100.00;50197.66;5115549;28;20042;-73
2022/05/24 00:33:13;;;;;;;3.72;2.17;;;;;;;-149.78;100.00;50185.91;5133877;28;20039;-73
2022/05/24 00:35:40;;;;;;;5.63;2.20;;;;;;;-149.78;100.00;50207.44;5098599;28;20439;-73
2022/05/24 00:38:09;;;;;;;5.07;2.20;;;;;;;-149.78;100.00;50232.84;5133592;28;20080;-73
2022/05/24 00:40:44;;;;;;;6.90;2.72;;;;;;;-149.78;100.00;50189.81;5115659;28;20031;-73
2022/05/24 00:43:32;;;;;;;3.03;2.10;;;;;;;-149.78;100.00;50219.16;5133853;28;20504;-73
2022/05/24 00:46:22;;;;;;;4.35;2.10;;;;;;;-149.78;100.00;50209.38;5115353;28;20129;-73
2022/05/24 00:48:56;;;;;;;4.32;2.20;;;;;;;-149.78;100.00;50164.41;5133495;28;20059;-73
2022/05/24 00:51:47;;;;;;;4.82;2.10;;;;;;;-149.78;100.00;50211.34;5115370;28;20474;-73
2022/05/24 00:54:12;;;;;;;5.32;2.15;;;;;;;-149.78;100.00;50195.69;5133385;28;20051;-73
2022/05/24 00:56:55;;;;;;;4.82;2.22;;;;;;;-149.78;100.00;50197.66;5133546;28;20106;-73
2022/05/24 00:59:32;;;;;;;;;;;;;;;-149.78;100.00;50213.28;5133885;28;20130;-73
2022/05/24 01:01:58;;;;;;;2.67;2.05;;;;;;;-149.78;100.00;50166.34;5098113;28;19911;-73
2022/05/24 01:04:24;;;;;;;4.88;1.88;;;;;;;-149.78;100.00;50189.81;5133633;28;20163;-73
2022/05/24 01:06:50;;;;;;;6.20;2.20;;;;;;;-149.78;100.00;50172.22;5115205;28;20039;-73
2022/05/24 01:09:22;;;;;;;6.53;1.80;;;;;;;-149.78;100.00;50168.31;5132830;28;20039;-72
2022/05/24 01:11:51;;;;;;;4.32;1.90;;;;;;;-149.78;100.00;50213.28;5133502;28;20051;-73
2022/05/24 01:14:20;;;;;;;6.55;1.98;;;;;;;-149.78;100.00;50205.47;5133652;28;20035;-73
2022/05/24 01:16:46;;;;;;;3.45;1.83;;;;;;;-149.78;100.00;50174.19;5098154;28;20050;-73
2022/05/24 01:19:35;;;;;;;4.35;2.20;;;;;;;-149.78;100.00;50189.81;5115151;28;20039;-73
2022/05/24 01:22:31;;;;;;;2.80;2.00;;;;;;;-149.78;100.00;50189.81;5098038;28;20152;-73
2022/05/24 01:25:14;;;;;;;2.85;1.60;;;;;;;-149.78;100.00;50228.94;5104512;27;20042;-73
2022/05/24 01:27:40;;;;;;;1.95;1.35;;;;;;;-149.78;100.00;50182.00;5137107;27;20027;-74
2022/05/24 01:30:09;;;;;;;3.47;1.50;;;;;;;-149.78;100.00;50199.59;5101508;27;20394;-74
2022/05/24 01:38:11;;;;;;;1.48;1.10;;;;;;;-149.78;100.00;50197.66;5116629;27;20428;-74
2022/05/24 01:40:37;;;;;;;1.50;1.20;;;;;;;-149.78;100.00;50178.09;5101312;27;20038;-74
2022/05/24 01:43:03;;;;;;;1.55;1.20;;;;;;;-149.78;100.00;50240.66;5118530;27;20039;-74
2022/05/24 01:45:37;;;;;;;2.83;1.30;;;;;;;-149.78;100.00;50193.72;5084556;27;20038;-73
2022/05/24 01:48:12;;;;;;;2.05;1.30;;;;;;;-149.78;100.00;50234.81;5118378;27;20070;-72
2022/05/24 01:50:42;;;;;;;3.63;1.23;;;;;;;-149.78;100.00;50197.66;5136585;27;20424;-74
2022/05/24 01:53:17;;;;;;;2.60;1.42;;;;;;;-149.78;100.00;50189.81;5133944;27;20102;-74
2022/05/24 01:55:53;;;;;;;5.78;1.40;;;;;;;-149.78;100.00;50207.44;5133061;27;20039;-74
2022/05/24 01:58:22;;;;;;;2.35;1.48;;;;;;;-149.78;100.00;50225.03;5117518;27;20382;-74
2022/05/24 02:00:53;;;;;;;1.70;1.30;;;;;;;-149.78;100.00;50201.56;5136536;27;20088;-74
2022/05/24 02:03:19;;;;;;;6.55;1.30;;;;;;;-149.78;100.00;50189.81;5136135;27;20451;-74
2022/05/24 02:05:46;;;;;;;2.72;1.40;;;;;;;-149.78;100.00;50225.03;5118171;27;20031;-74
2022/05/24 02:08:13;;;;;;;2.97;1.50;;;;;;;-149.78;100.00;50225.03;5100971;27;20042;-74
2022/05/24 02:11:02;;;;;;;3.00;1.83;;;;;;;-149.78;100.00;50225.03;5135997;27;20027;-74
2022/05/24 02:13:39;;;;;;;5.97;1.67;;;;;;;-149.78;100.00;50228.94;5135534;27;20386;-74
2022/05/24 02:16:10;;;;;;;6.72;1.50;;;;;;;-149.78;100.00;50221.13;5117613;27;20643;-73
2022/05/24 02:18:39;;;;;;;3.73;1.50;;;;;;;-149.78;100.00;50182.00;5129019;27;20459;-74
2022/05/24 02:21:05;;;;;;;2.28;1.50;;;;;;;-149.78;100.00;50225.03;5105102;28;20039;-74
2022/05/24 02:23:39;;;;;;;3.42;1.52;;;;;;;-149.78;100.00;50209.38;5097331;28;20463;-74
2022/05/24 02:26:08;;;;;;;3.15;1.45;;;;;;;-149.78;100.00;50242.63;5115290;28;20040;-73
2022/05/24 02:28:34;;;;;;;2.92;1.45;;;;;;;-149.78;100.00;50215.25;5113306;27;20031;-73
2022/05/24 02:31:04;;;;;;;2.30;1.33;;;;;;;-149.78;100.00;50201.56;5135902;27;20083;-74
2022/05/24 02:33:32;;;;;;;3.35;1.70;;;;;;;-149.78;100.00;50258.28;5135974;27;20498;-74
2022/05/24 02:35:58;;;;;;;4.13;1.40;;;;;;;-149.78;100.00;50223.06;5135234;27;20062;-74
2022/05/24 02:38:24;;;;;;;1.30;1.20;;;;;;;-149.78;100.00;50213.28;5117410;27;20039;-74
2022/05/24 02:43:34;;;;;;;4.70;1.48;;;;;;;-149.78;100.00;50207.44;5120072;27;20039;-74
2022/05/24 02:46:00;;;;;;;3.65;1.38;;;;;;;-149.78;100.00;50236.75;5117436;27;20054;-74
2022/05/24 02:48:26;;;;;;;1.65;1.33;;;;;;;-149.78;100.00;50203.50;5135150;27;20027;-74
2022/05/24 02:50:52;;;;;;;2.15;1.40;;;;;;;-149.78;100.00;50240.66;5135407;27;20035;-74
2022/05/24 02:53:18;;;;;;;2.83;1.60;;;;;;;-149.78;100.00;50215.25;5116698;27;20045;-75
2022/05/24 02:55:43;;;;;;;5.70;2.17;;;;;;;-149.78;100.00;50230.88;5116507;27;20039;-74
2022/05/24 02:58:09;;;;;;;2.58;1.70;;;;;;;-149.78;100.00;50244.59;5116627;27;20043;-74
2022/05/24 03:00:35;;;;;;;1.48;1.25;;;;;;;-149.78;100.00;50215.25;5115895;27;20038;-73
2022/05/24 03:03:00;;;;;;;3.28;1.25;;;;;;;-149.78;100.00;50240.66;5098991;27;20036;-74
2022/05/24 03:05:27;;;;;;;2.97;1.75;;;;;;;-149.78;100.00;50221.13;5134791;27;20039;-74
2022/05/24 03:10:37;;;;;;;2.80;1.40;;;;;;;-149.78;100.00;50240.66;5135053;27;20550;-74
2022/05/24 03:15:49;;;;;;;6.18;1.48;;;;;;;-149.78;100.00;50228.94;5119568;27;20031;-74
2022/05/24 03:18:17;;;;;;;3.72;1.50;;;;;;;-149.78;100.00;50221.13;5116519;27;20039;-74
2022/05/24 03:20:43;;;;;;;5.15;1.50;;;;;;;-149.78;100.00;50240.66;5116402;27;20114;-74
2022/05/24 03:23:10;;;;;;;4.82;1.60;;;;;;;-149.78;100.00;50205.47;5116241;27;20034;-74
2022/05/24 03:25:36;;;;;;;3.42;1.30;;;;;;;-149.78;100.00;50244.59;5113777;27;20035;-74
2022/05/24 03:28:04;;;;;;;2.22;1.45;;;;;;;-149.78;100.00;50217.19;5113118;27;20031;-73
2022/05/24 03:30:32;;;;;;;4.38;1.50;;;;;;;-149.78;100.00;50226.97;5116388;27;20444;-73
2022/05/24 03:32:57;;;;;;;1.42;1.30;;;;;;;-149.78;100.00;50150.72;5134999;27;20037;-73
2022/05/24 03:35:24;;;;;;;1.92;1.10;;;;;;;-149.78;100.00;50215.25;5099514;27;20449;-74
2022/05/24 03:37:50;;;;;;;3.88;1.20;;;;;;;-149.78;100.00;50242.63;5116323;27;20031;-73
2022/05/24 03:40:16;;;;;;;2.97;1.27;;;;;;;-149.78;100.00;50221.13;5116312;27;20031;-73
2022/05/24 03:42:42;;;;;;;2.47;1.10;;;;;;;-149.78;100.00;50230.88;5110328;28;20031;-73
2022/05/24 03:45:10;;;;;;;1.77;1.17;;;;;;;-149.78;100.00;50199.59;5099594;27;20031;-73
2022/05/24 03:47:37;;;;;;;2.55;1.23;;;;;;;-149.78;100.00;50228.94;5114192;27;20027;-73
2022/05/24 03:50:08;;;;;;;2.55;1.38;;;;;;;-149.78;100.00;50213.28;5116324;27;20033;-74
2022/05/24 03:52:34;;;;;;;2.92;1.30;;;;;;;-149.78;100.00;50209.38;5116177;27;20131;-73
2022/05/24 03:54:59;;;;;;;2.05;1.10;;;;;;;-149.78;100.00;50236.75;5116247;27;20506;-73
2022/05/24 04:00:12;;;;;;;1.42;0.98;;;;;;;-149.78;100.00;50252.41;5118914;27;20055;-73
2022/05/24 04:02:38;;;;;;;1.88;1.00;;;;;;;-149.78;100.00;50232.84;5134164;27;20039;-73
2022/05/24 04:05:05;;;;;;;3.17;1.00;;;;;;;-149.78;100.00;50228.94;5115936;28;20118;-73
2022/05/24 04:07:31;;;;;;;2.42;1.25;;;;;;;-149.78;100.00;50232.84;5134450;27;20039;-73
2022/05/24 04:09:57;;;;;;;1.20;1.10;;;;;;;-149.78;100.00;50225.03;5115785;28;20077;-73
2022/05/24 04:12:23;;;;;;;1.77;1.02;;;;;;;-149.78;100.00;50240.66;5134166;28;20079;-73
2022/05/24 04:14:48;;;;;;;4.78;1.35;;;;;;;-149.78;100.00;50248.50;5133808;28;20039;-73
2022/05/24 04:17:14;;;;;;;3.10;1.50;;;;;;;-149.78;100.00;50244.59;5133862;28;20114;-73
2022/05/24 04:19:39;;;;;;;3.60;1.10;;;;;;;-149.78;100.00;50217.19;5133891;28;20062;-72
2022/05/24 04:22:05;;;;;;;2.55;1.23;;;;;;;-149.78;100.00;50223.06;5114901;28;20059;-74
2022/05/24 04:24:31;;;;;;;3.78;1.15;;;;;;;-149.78;100.00;50240.66;5115065;28;20039;-74
2022/05/24 04:26:56;;;;;;;2.00;1.25;;;;;;;-149.78;100.00;50207.44;5115088;28;20077;-72
2022/05/24 04:29:22;;;;;;;3.53;1.20;;;;;;;-149.78;100.00;50252.41;5133342;28;20027;-74
2022/05/24 04:31:47;;;;;;;3.30;1.30;;;;;;;-149.78;100.00;50244.59;5133972;28;20110;-74
2022/05/24 04:34:14;;;;;;;4.72;1.40;;;;;;;-149.78;100.00;50217.19;5134062;28;20038;-74
2022/05/24 04:36:40;;;;;;;2.10;1.17;;;;;;;-149.78;100.00;50262.19;5133979;28;20035;-73
2022/05/24 04:39:05;;;;;;;3.33;1.27;;;;;;;-149.78;100.00;50228.94;5098792;28;20031;-74
2022/05/24 04:44:15;;;;;;;2.65;1.20;;;;;;;-149.78;100.00;50207.44;5117627;28;20031;-72
2022/05/24 04:49:24;;;;;;;2.03;1.35;;;;;;;-149.78;100.00;50252.41;5133814;28;20386;-73
2022/05/24 04:51:54;;;;;;;2.88;1.20;;;;;;;-149.78;100.00;50223.06;5098539;28;20039;-74
2022/05/24 04:54:20;;;;;;;1.42;1.10;;;;;;;-149.78;100.00;50236.75;5098512;28;20411;-74
2022/05/24 04:56:46;;;;;;;3.15;1.20;;;;;;;-149.78;100.00;50268.03;5133828;28;20122;-74
2022/05/24 04:59:13;;;;;;;1.63;1.27;;;;;;;-149.78;100.00;50244.59;5136413;27;20051;-74
2022/05/24 05:01:38;;;;;;;4.22;1.27;;;;;;;-149.78;100.00;50228.94;5137598;27;20050;-74
2022/05/24 05:04:04;;;;;;;3.30;1.38;;;;;;;-149.78;100.00;50242.63;5137487;27;20128;-74
2022/05/24 05:06:29;;;;;;;3.63;1.20;;;;;;;-149.78;100.00;50244.59;5137718;27;20031;-71
2022/05/24 05:08:55;;;;;;;3.85;1.40;;;;;;;-149.78;100.00;50228.94;5102144;27;20042;-74
2022/05/24 05:11:20;;;;;;;1.52;1.10;;;;;;;-149.78;100.00;50248.50;5119186;27;20110;-74
2022/05/24 05:13:47;;;;;;;4.22;1.45;;;;;;;-149.78;100.00;50219.16;5137548;27;20042;-74
2022/05/24 05:16:13;;;;;;;2.00;1.45;;;;;;;-149.78;100.00;50221.13;5118832;27;20125;-72
2022/05/24 05:18:38;;;;;;;3.25;1.30;;;;;;;-149.78;100.00;50228.94;5118700;27;20066;-75
2022/05/24 05:21:04;;;;;;;3.25;1.17;;;;;;;-149.78;100.00;50219.16;5119151;27;20039;-71
2022/05/24 05:23:30;;;;;;;2.42;1.10;;;;;;;-149.78;100.00;50252.41;5102300;27;20113;-72
2022/05/24 05:25:56;;;;;;;3.65;1.10;;;;;;;-149.78;100.00;50209.38;5101936;27;20043;-71
2022/05/24 05:28:21;;;;;;;2.63;1.10;;;;;;;-149.78;100.00;50228.94;5137273;27;20034;-71
2022/05/24 05:33:32;;;;;;;4.63;1.27;;;;;;;-149.78;100.00;50240.66;5101203;28;20043;-72
2022/05/24 05:35:57;;;;;;;1.98;0.98;;;;;;;-149.78;100.00;50223.06;5116502;27;20411;-72
2022/05/24 05:38:23;;;;;;;1.95;1.40;;;;;;;-149.78;100.00;50225.03;5081213;28;20039;-73
2022/05/24 05:40:52;;;;;;;1.60;1.20;;;;;;;-149.78;100.00;50209.38;5116676;28;20409;-73
2022/05/24 05:43:18;;;;;;;1.58;1.17;;;;;;;-149.78;100.00;50225.03;5116302;28;20028;-72
2022/05/24 05:45:51;;;;;;;1.45;1.00;;;;;;;-149.78;100.00;50232.84;5105754;28;20050;-72
2022/05/24 05:48:16;;;;;;;3.45;1.67;;;;;;;-149.78;100.00;50189.81;5126949;27;20032;-72
2022/05/24 05:50:42;;;;;;;3.53;1.30;;;;;;;-149.78;100.00;50236.75;5097660;27;20030;-73
2022/05/24 05:53:07;;;;;;;2.38;1.00;;;;;;;-149.78;100.00;50240.66;5106454;27;20417;-73
2022/05/24 05:55:36;;;;;;;2.15;1.27;;;;;;;-149.78;100.00;50228.94;5095101;27;20042;-73
2022/05/24 05:58:02;;;;;;;2.47;1.08;;;;;;;-149.78;100.00;50182.00;5132191;27;20110;-73
2022/05/24 06:00:28;;;;;;;0.95;0.88;;;;;;;-149.78;100.00;50197.66;5126452;27;20118;-73
2022/05/24 06:02:53;;;;;;;1.17;0.98;;;;;;;-149.78;100.00;50228.94;5123197;27;20493;-72
2022/05/24 06:05:19;;;;;;;2.13;1.10;;;;;;;-149.78;100.00;50228.94;5102888;28;20047;-73
2022/05/24 06:07:45;;;;;;;4.30;1.20;;;;;;;-149.78;100.00;50207.44;5086720;27;20110;-73
2022/05/24 06:10:12;;;;;;;1.45;0.90;;;;;;;-149.78;100.00;50213.28;5100184;28;20062;-73
2022/05/24 06:12:38;;;;;;;0.98;0.90;;;;;;;-149.78;100.00;50170.25;5129551;27;20023;-73
2022/05/24 06:15:04;;;;;;;2.30;0.95;;;;;;;-149.78;100.00;50217.19;5123538;27;20043;-73
2022/05/24 06:17:30;;;;;;;1.63;0.98;;;;;;;-149.78;100.00;50180.03;5097501;28;20036;-72
2022/05/24 06:20:01;;;;;;;1.10;0.93;;;;;;;-149.78;100.00;50178.09;5124984;27;20047;-72
2022/05/24 06:22:26;;;;;;;1.05;0.70;;;;;;;-149.78;100.00;50189.81;5110523;28;20028;-73
2022/05/24 06:24:52;;;;;;;1.10;1.00;;;;;;;-149.78;100.00;50185.91;5129054;27;20459;-72
2022/05/24 06:27:22;;;;;;;4.35;0.80;;;;;;;-149.78;100.00;50199.59;5120839;27;20023;-72
2022/05/24 06:29:48;;;;;;;2.63;0.90;;;;;;;-149.78;100.00;50195.69;5132464;27;20031;-70
2022/05/24 06:32:14;;;;;;;3.10;1.20;;;;;;;-149.78;100.00;50146.81;5108525;27;20367;-73
2022/05/24 06:34:40;;;;;;;2.45;0.88;;;;;;;-149.78;100.00;50174.19;5100010;27;20067;-72
2022/05/24 06:37:06;;;;;;;2.40;1.00;;;;;;;-149.78;100.00;50162.44;5102552;27;20065;-72
2022/05/24 06:39:31;;;;;;;2.17;0.80;;;;;;;-149.78;100.00;50123.34;5102093;27;20039;-72
2022/05/24 06:41:57;;;;;;;3.67;1.38;;;;;;;-149.78;100.00;50137.03;5124506;27;20075;-73
2022/05/24 06:44:22;;;;;;;2.25;1.00;;;;;;;-149.78;100.00;50113.56;5123661;27;20137;-72
2022/05/24 06:46:48;;;;;;;1.40;1.05;;;;;;;-149.78;100.00;50088.13;5105200;27;20382;-72
2022/05/24 06:49:14;;;;;;;2.33;0.90;;;;;;;-149.78;100.00;50076.41;5126805;27;20033;-72
2022/05/24 06:51:40;;;;;;;5.35;0.70;;;;;;;-149.78;100.00;50084.22;5088072;27;20041;-72
2022/05/24 06:54:05;;;;;;;3.67;1.00;;;;;;;-149.78;92.20;50056.84;5126238;27;20039;-72
2022/05/24 06:56:31;;;;;;;4.40;0.77;;;;;;;-149.78;81.41;50062.72;5104310;27;20046;-73
2022/05/24 07:04:25;;;;;;;2.17;0.82;;;;;;;-149.78;91.03;50084.22;5102487;28;20391;-71
2022/05/24 07:06:51;;;;;;;1.77;0.77;;;;;;;-149.78;100.00;50146.81;5112712;28;20032;-71
2022/05/24 07:09:17;;;;;;;1.88;0.95;;;;;;;-149.78;100.00;50115.50;5113359;28;20095;-72
2022/05/24 07:11:43;;;;;;;3.13;1.10;;;;;;;-149.78;100.00;50138.97;5096355;28;20114;-72
2022/05/24 07:14:09;;;;;;;1.63;0.82;;;;;;;-149.78;100.00;50148.75;5108762;28;20034;-72
2022/05/24 07:16:34;;;;;;;3.38;1.00;;;;;;;-149.78;100.00;50205.47;5103682;28;21426;-72
2022/05/24 07:19:01;;;;;;;6.97;0.98;;;;;;;-149.78;100.00;50144.84;5102875;28;20035;-71
2022/05/24 07:21:26;;;;;;;1.88;1.13;;;;;;;-149.78;100.00;50182.00;5103585;28;20054;-71
2022/05/24 07:23:52;;;;;;;0.98;0.80;;;;;;;-149.78;100.00;50162.44;5102442;28;20126;-72
2022/05/24 07:26:21;;;;;;;2.25;0.90;;;;;;;-149.78;100.00;50146.81;5085415;28;20039;-71
2022/05/24 07:28:47;;;;;;;2.55;0.75;;;;;;;-149.78;100.00;50174.19;5102197;28;20027;-71
2022/05/24 07:31:12;;;;;;;1.80;1.02;;;;;;;-149.78;100.00;50189.81;5083361;28;20524;-71
2022/05/24 07:33:38;;;;;;;2.90;0.90;;;;;;;-149.78;100.00;50217.19;5103547;28;20039;-72
2022/05/24 07:36:05;;;;;;;1.15;0.93;;;;;;;-149.78;100.00;50174.19;5100909;28;20039;-72
2022/05/24 07:38:31;;;;;;;3.83;1.00;;;;;;;-149.78;100.00;50217.19;5101931;28;20035;-71
2022/05/24 07:46:43;;;;;;;0.80;0.77;;;;;;;-149.78;100.00;50185.91;5088893;28;20477;-70
2022/05/24 07:49:09;;;;;;;3.30;0.90;;;;;;;-149.78;100.00;50189.81;5092140;28;20119;-71
2022/05/24 07:51:34;;;;;;;3.15;0.80;;;;;;;-149.78;100.00;50170.25;5093006;28;20075;-71
2022/05/24 07:54:00;;;;;;;1.77;0.90;;;;;;;-149.78;100.00;50180.03;5093270;28;20047;-71
2022/05/24 07:56:26;;;;;;;1.55;0.70;;;;;;;-149.78;100.00;50170.25;5106693;28;20036;-71
2022/05/24 07:58:52;;;;;;;0.95;0.65;;;;;;;-149.78;100.00;50152.66;5094603;28;20036;-71
2022/05/24 08:01:19;;;;;;;2.38;0.90;;;;;;;-149.78;100.00;50187.88;5106309;28;20097;-71
2022/05/24 08:03:45;;;;;;;3.83;0.70;;;;;;;-149.78;100.00;50146.81;5094249;28;20039;-71
2022/05/24 08:06:11;;;;;;;1.27;0.65;;;;;;;-149.78;100.00;50142.88;5103546;28;20495;-71
2022/05/24 08:08:38;;;;;;;0.82;0.60;;;;;;;-149.78;100.00;50170.25;5095595;28;20023;-71
2022/05/24 08:11:05;;;;;;;1.25;0.60;;;;;;;-149.78;100.00;50156.56;5096546;28;20035;-70
2022/05/24 08:13:31;;;;;;;2.15;0.70;;;;;;;-149.78;100.00;50172.22;5099232;28;20035;-70
2022/05/24 08:15:58;;;;;;;2.45;0.70;;;;;;;-149.78;100.00;50166.34;5096696;28;20055;-71
2022/05/24 08:18:24;;;;;;;0.70;0.70;;;;;;;-149.78;100.00;50182.00;5094732;28;20031;-70
2022/05/24 08:20:51;;;;;;;1.02;0.80;;;;;;;-149.78;100.00;50174.19;5105445;28;20031;-70
2022/05/24 08:23:20;;;;;;;2.50;0.68;;;;;;;-149.78;100.00;50182.00;5103583;28;20083;-70
2022/05/24 08:25:45;;;;;;;1.50;0.70;;;;;;;-149.78;100.00;50199.59;5100355;28;20070;-70
2022/05/24 08:28:11;;;;;;;0.88;0.60;;;;;;;-149.78;100.00;50183.97;5102315;28;20032;-71
2022/05/24 08:30:38;;;;;;;0.52;0.52;;;;;;;-149.78;100.00;50221.13;5089170;28;20055;-71
2022/05/24 08:33:05;;;;;;;3.15;0.60;;;;;;;-149.78;100.00;50209.38;5105744;28;20032;-71
2022/05/24 08:35:35;;;;;;;1.05;0.68;;;;;;;-149.78;100.00;50207.44;5109333;28;20028;-71
2022/05/24 08:38:02;;;;;;;1.30;0.80;;;;;;;-149.78;100.00;50201.56;5110390;28;20059;-71
2022/05/24 08:40:28;;;;;;;2.40;0.80;;;;;;;-149.78;100.00;50201.56;5093969;28;20063;-71
2022/05/24 08:43:13;;;;;;;1.95;0.73;;;;;;;-149.78;100.00;50207.44;5101024;28;20356;-71
2022/05/24 08:48:51;;;;;;;2.35;1.00;;;;;;;-149.78;100.00;50240.66;5107333;28;20019;-71
2022/05/24 08:51:18;;;;;;;1.55;1.00;;;;;;;-149.78;100.00;50182.00;5109041;28;20433;-72
2022/05/24 08:53:46;;;;;;;1.92;0.73;;;;;;;-149.78;100.00;50185.91;5111965;28;20111;-71
2022/05/24 08:56:24;;;;;;;1.75;0.70;;;;;;;-149.78;100.00;50201.56;5105842;28;21298;-71
2022/05/24 08:58:56;;;;;;;1.73;0.98;;;;;;;-149.78;100.00;50129.19;5119193;27;20046;-71
2022/05/24 09:01:27;;;;;;;;;;;;;;;-149.78;100.00;50123.34;5133574;27;20023;-71
2022/05/24 09:03:52;;;;;;;1.65;0.93;;;;;;;-149.78;100.00;50076.41;5149191;27;19915;-71
2022/05/24 09:06:44;;;;;;;1.27;0.90;;;;;;;-149.78;78.85;50021.63;5113041;27;20039;-70
2022/05/24 09:09:47;;;;;;;0.80;0.80;;;;;;;-149.78;69.06;49962.97;5137194;27;20038;-70
2022/05/24 09:12:21;;;;;;;2.47;0.60;;;;;;;-149.78;59.32;50006.00;5120170;27;20072;-70
2022/05/24 09:15:12;;;;;;;3.78;0.85;;;;;;;-149.78;62.30;50025.56;5128627;27;20023;-70
2022/05/24 09:18:02;;;;;;;1.08;0.80;;;;;;;-149.78;70.99;50092.03;5128946;27;20027;-71
2022/05/24 09:20:32;;;;;;;3.03;0.90;;;;;;;-149.78;73.29;50088.13;5107768;27;20027;-71
2022/05/24 09:23:21;;;;;;;1.85;1.10;;;;;;;-149.78;84.57;50111.59;5131138;27;20773;-71
2022/05/24 09:26:06;;;;;;;0.63;0.63;;;;;;;-149.78;91.93;50158.53;5081034;27;20404;-71
2022/05/24 09:28:40;;;;;;;1.50;1.30;;;;;;;-149.78;89.82;50154.63;5127746;27;20106;-70
2022/05/24 09:31:07;;;;;;;0.80;0.52;;;;;;;-149.78;100.00;50174.19;5117851;27;20066;-71
2022/05/24 09:33:38;;;;;;;0.98;0.75;;;;;;;-149.78;100.00;50170.25;5121502;27;20050;-70
2022/05/24 09:36:04;;;;;;;1.48;0.90;;;;;;;-149.78;100.00;50158.53;5091882;27;20035;-70
2022/05/24 09:38:37;;;;;;;2.67;1.00;;;;;;;-149.78;100.00;50166.34;5126862;27;20035;-70
2022/05/24 09:41:09;;;;;;;4.53;1.02;;;;;;;-149.78;100.00;50176.13;5112661;27;20115;-70
2022/05/24 09:43:36;;;;;;;1.58;1.42;;;;;;;-149.78;100.00;50185.91;5116648;27;20019;-70
2022/05/24 09:46:07;;;;;;;2.67;1.08;;;;;;;-149.78;100.00;50170.25;5107901;27;20031;-70
2022/05/24 09:48:37;;;;;;;2.20;1.08;;;;;;;-149.78;100.00;50152.66;5124739;27;20363;-70
2022/05/24 09:51:10;;;;;;;1.20;1.10;;;;;;;-149.78;100.00;50150.72;5136109;27;20118;-70
2022/05/24 09:53:49;;;;;;;3.05;1.33;;;;;;;-149.78;100.00;50103.78;5111413;27;20034;-71
2022/05/24 09:56:29;;;;;;;3.13;1.30;;;;;;;-149.78;100.00;50115.50;5125511;27;20115;-71
2022/05/24 09:58:54;;;;;;;1.88;0.93;;;;;;;-149.78;100.00;50072.50;5104948;28;20048;-71
2022/05/24 10:01:35;;;;;;;6.50;1.17;;;;;;;-149.78;100.00;50021.63;5115956;28;20034;-71
2022/05/24 10:04:25;;;;;;;1.25;0.88;;;;;;;-149.78;82.80;50049.03;5114780;28;20106;-71
2022/05/24 10:07:02;;;;;;;1.42;0.88;;;;;;;-149.78;85.64;50078.34;5114399;28;20368;-71
2022/05/24 10:09:44;;;;;;;1.50;0.88;;;;;;;-149.78;76.79;50058.78;5102009;28;20112;-71
2022/05/24 10:12:22;;;;;;;2.33;1.10;;;;;;;-149.78;88.41;50076.41;5098134;28;20527;-71
2022/05/24 10:15:05;;;;;;;1.98;1.05;;;;;;;-149.78;100.00;50146.81;5098597;28;20032;-71
2022/05/24 10:17:43;;;;;;;2.22;1.05;;;;;;;-149.78;100.00;50095.94;5099600;28;20034;-71
2022/05/24 10:20:15;;;;;;;4.80;1.10;;;;;;;-149.78;100.00;50095.94;5102849;28;20442;-71
2022/05/24 10:23:04;;;;;;;1.30;0.98;;;;;;;-149.78;94.14;50135.06;5102180;28;20487;-71
2022/05/24 10:25:39;;;;;;;1.52;0.93;;;;;;;-149.78;79.13;50123.34;5096444;28;20024;-71
2022/05/24 10:28:13;;;;;;;1.60;0.70;;;;;;;-149.78;71.20;50092.03;5103523;28;20034;-71
2022/05/24 10:30:42;;;;;;;2.70;1.27;;;;;;;-149.78;79.29;50107.69;5093882;28;20517;-71
2022/05/24 10:39:34;;;;;;;1.67;0.75;;;;;;;-149.78;81.23;50150.72;5080372;28;20044;-71
2022/05/24 10:42:18;;;;;;;1.15;0.60;;;;;;;-149.78;92.31;50158.53;5094996;28;20102;-71
2022/05/24 10:45:04;;;;;;;1.95;0.77;;;;;;;-149.78;84.04;50164.41;5093499;28;20372;-71
2022/05/24 10:47:43;;;;;;;4.88;0.80;;;;;;;-149.78;88.25;50148.75;5093548;28;20028;-71
2022/05/24 10:50:28;;;;;;;2.40;0.75;;;;;;;-149.78;82.37;50140.94;5093522;28;20118;-71
2022/05/24 10:53:00;;;;;;;1.90;0.93;;;;;;;-149.78;75.15;50138.97;5076591;28;20517;-71
2022/05/24 10:55:36;;;;;;;3.50;0.90;;;;;;;-149.78;72.30;50156.56;5106453;28;20033;-71
2022/05/24 10:58:05;;;;;;;4.43;1.02;;;;;;;-149.78;72.04;50109.66;5114701;28;20028;-71
2022/05/24 11:00:41;;;;;;;3.30;0.90;;;;;;;-149.78;66.05;50084.22;5101718;28;20032;-71
2022/05/24 11:03:18;;;;;;;3.17;0.95;;;;;;;-149.78;65.06;50084.22;5095041;28;20421;-71
2022/05/24 11:05:49;;;;;;;1.48;0.90;;;;;;;-149.78;64.89;50041.19;5094354;28;20032;-70
2022/05/24 11:08:58;;;;;;;1.92;0.80;;;;;;;-149.78;58.20;50111.59;5094419;28;20145;-70
2022/05/24 11:11:41;;;;;;;4.72;1.42;;;;;;;-149.78;63.80;50084.22;5087613;28;20050;-71
2022/05/24 11:14:17;;;;;;;2.40;0.82;;;;;;;-149.78;68.98;50111.59;5113138;28;20112;-71
2022/05/24 11:16:46;;;;;;;3.80;1.02;;;;;;;-149.78;60.97;50092.03;5113330;28;20471;-71
2022/05/24 11:19:19;;;;;;;0.70;0.50;;;;;;;-149.78;55.42;50058.78;5113341;28;20107;-71
2022/05/24 11:21:57;;;;;;;0.88;0.52;;;;;;;-149.78;58.51;50060.75;5114360;28;20032;-70
2022/05/24 11:24:55;;;;;;;2.00;0.60;;;;;;;-149.78;59.08;50115.50;5114125;28;20110;-71
2022/05/24 11:27:31;;;;;;;1.23;0.65;;;;;;;-149.78;60.17;50111.59;5102595;28;20396;-70
2022/05/24 11:30:06;;;;;;;1.30;0.55;;;;;;;-149.78;59.68;50103.78;5091879;28;20161;-71
2022/05/24 11:32:43;;;;;;;1.23;0.85;;;;;;;-149.78;60.55;50080.31;5108719;28;20030;-71
2022/05/24 11:35:35;;;;;;;1.70;0.82;;;;;;;-149.78;60.27;50099.88;5101515;28;20023;-71
2022/05/24 11:38:30;;;;;;;1.15;0.60;;;;;;;-149.78;57.50;50076.41;5111626;28;20035;-71
2022/05/24 11:41:21;;;;;;;2.63;0.80;;;;;;;-149.78;55.09;50060.75;5092734;28;20036;-71
2022/05/24 11:43:50;;;;;;;3.30;0.60;;;;;;;-149.78;55.11;50054.88;5097267;28;20039;-71
2022/05/24 11:46:33;;;;;;;3.33;0.85;;;;;;;-149.78;53.93;50033.38;5112544;28;20471;-71
2022/05/24 11:49:12;;;;;;;2.58;0.85;;;;;;;-149.78;55.40;50064.66;5107650;28;20027;-71
2022/05/24 11:51:54;;;;;;;3.50;1.30;;;;;;;-149.78;54.51;50082.25;5112758;28;20475;-71
2022/05/24 11:54:21;;;;;;;3.50;1.53;;;;;;;-149.78;55.54;50092.03;5113640;28;20047;-70
2022/05/24 11:57:14;;;;;;;4.70;1.27;;;;;;;-149.78;53.14;50049.03;5113824;28;20114;-71
2022/05/24 11:59:48;;;;;;;2.70;1.27;;;;;;;-149.78;55.60;50080.31;5094754;28;20054;-71
2022/05/24 12:02:27;;;;;;;2.00;0.85;;;;;;;-149.78;54.21;50076.41;5113831;28;20037;-71
2022/05/24 12:08:31;;;;;;;5.82;2.30;;;;;;;-149.78;57.38;50062.72;5105013;28;20108;-71
2022/05/24 12:11:06;;;;;;;7.93;1.92;;;;;;;-149.78;56.18;50060.75;5109327;28;20149;-71
2022/05/24 12:13:34;;;;;;;2.22;1.00;;;;;;;-149.78;56.22;50084.22;5095478;28;20039;-71
2022/05/24 12:16:03;;;;;;;1.85;0.95;;;;;;;-149.78;57.68;50064.66;5112329;28;20164;-70